createdAt,value
2023-11-01T00:01:05.536Z,10.53
2023-11-01T00:03:34.665Z,10.47
2023-11-01T00:06:02.391Z,10.48
2023-11-01T00:08:30.074Z,10.48
2023-11-01T00:10:58.144Z,10.50
2023-11-01T00:13:25.828Z,10.58
2023-11-01T00:15:53.474Z,10.54
2023-11-01T00:18:21.383Z,10.54
2023-11-01T00:20:50.576Z,10.58
2023-11-01T00:23:18.193Z,10.65
2023-11-01T00:25:46.192Z,10.53
2023-11-01T00:28:13.807Z,10.60
2023-11-01T00:30:41.446Z,10.58
2023-11-01T00:33:09.196Z,10.63
2023-11-01T00:35:37.075Z,10.68
2023-11-01T00:38:07.190Z,10.68
2023-11-01T00:40:34.901Z,10.73
2023-11-01T00:43:02.498Z,10.75
2023-11-01T00:45:30.089Z,10.69
2023-11-01T00:47:57.840Z,10.85
2023-11-01T00:50:25.542Z,10.86
2023-11-01T00:52:53.204Z,10.44
2023-11-01T00:55:22.339Z,10.81
2023-11-01T00:57:50.018Z,10.75
2023-11-01T01:00:18.259Z,10.74
2023-11-01T01:02:46.018Z,10.80
2023-11-01T01:05:13.991Z,10.80
2023-11-01T01:07:41.736Z,10.84
2023-11-01T01:10:09.836Z,10.84
2023-11-01T01:12:38.897Z,10.78
2023-11-01T01:15:07.422Z,10.69
2023-11-01T01:17:35.257Z,10.76
2023-11-01T01:20:03.575Z,10.76
2023-11-01T01:22:31.174Z,10.69
2023-11-01T01:24:58.750Z,10.75
2023-11-01T01:27:26.381Z,10.68
2023-11-01T01:29:55.360Z,10.72
2023-11-01T01:32:22.978Z,10.71
2023-11-01T01:34:50.696Z,10.68
2023-11-01T01:37:18.404Z,10.65
2023-11-01T01:39:46.111Z,10.65
2023-11-01T01:42:14.653Z,10.64
2023-11-01T01:44:42.375Z,10.73
2023-11-01T01:47:11.699Z,10.75
2023-11-01T01:49:45.340Z,10.73
2023-11-01T01:52:13.900Z,10.69
2023-11-01T01:54:41.656Z,10.72
2023-11-01T01:57:10.886Z,10.71
2023-11-01T01:59:38.882Z,10.74
2023-11-01T02:02:09.307Z,10.68
2023-11-01T02:04:38.525Z,10.69
2023-11-01T02:07:06.332Z,10.72
2023-11-01T02:09:34.073Z,10.81
2023-11-01T02:12:01.768Z,11.02
2023-11-01T02:14:29.590Z,10.84
2023-11-01T02:16:57.299Z,10.83
2023-11-01T02:19:24.989Z,10.53
2023-11-01T02:21:54.110Z,10.77
2023-11-01T02:24:23.161Z,10.78
2023-11-01T02:26:50.912Z,10.80
2023-11-01T02:29:18.616Z,10.73
2023-11-01T02:31:46.388Z,10.67
2023-11-01T02:34:14.099Z,10.65
2023-11-01T02:36:41.683Z,10.65
2023-11-01T02:39:09.313Z,10.63
2023-11-01T02:41:40.161Z,10.64
2023-11-01T02:44:08.875Z,10.62
2023-11-01T02:46:36.497Z,10.65
2023-11-01T02:49:05.258Z,10.77
2023-11-01T02:51:33.209Z,10.74
2023-11-01T02:54:00.956Z,10.74
2023-11-01T02:56:28.700Z,10.68
2023-11-01T02:58:58.296Z,10.69
2023-11-01T03:01:27.521Z,10.76
2023-11-01T03:03:55.383Z,10.63
2023-11-01T03:06:23.039Z,10.62
2023-11-01T03:08:51.565Z,10.67
2023-11-01T03:11:19.229Z,10.68
2023-11-01T03:13:46.892Z,10.69
2023-11-01T03:16:15.902Z,10.69
2023-11-01T03:18:45.563Z,10.67
2023-11-01T03:21:13.243Z,10.86
2023-11-01T03:23:41.056Z,10.67
2023-11-01T03:26:08.735Z,10.63
2023-11-01T03:28:36.357Z,10.75
2023-11-01T03:31:04.050Z,10.67
2023-11-01T03:33:33.100Z,10.65
2023-11-01T03:36:00.735Z,10.66
2023-11-01T03:38:28.386Z,10.65
2023-11-01T03:40:56.011Z,10.65
2023-11-01T03:43:23.722Z,10.57
2023-11-01T03:45:51.320Z,10.70
2023-11-01T03:48:19.261Z,10.61
2023-11-01T03:50:48.396Z,10.65
2023-11-01T03:53:16.152Z,10.62
2023-11-01T03:55:44.106Z,10.70
2023-11-01T03:58:11.719Z,10.87
2023-11-01T04:00:39.339Z,10.85
2023-11-01T04:03:07.163Z,10.80
2023-11-01T04:05:34.880Z,10.87
2023-11-01T04:08:03.845Z,10.80
2023-11-01T04:10:32.054Z,10.71
2023-11-01T04:12:59.737Z,10.65
2023-11-01T04:15:27.392Z,10.75
2023-11-01T04:17:55.034Z,10.73
2023-11-01T04:20:22.762Z,10.76
2023-11-01T04:22:50.492Z,11.01
2023-11-01T04:25:19.486Z,10.92
2023-11-01T04:27:47.144Z,10.78
2023-11-01T04:30:15.361Z,10.88
2023-11-01T04:32:44.485Z,10.79
2023-11-01T04:35:12.503Z,10.71
2023-11-01T04:37:40.356Z,10.71
2023-11-01T04:40:08.956Z,10.87
2023-11-01T04:42:40.698Z,10.75
2023-11-01T04:45:08.740Z,10.78
2023-11-01T04:47:37.235Z,10.81
2023-11-01T04:50:10.024Z,10.76
2023-11-01T04:52:37.948Z,10.92
2023-11-01T04:55:06.617Z,10.95
2023-11-01T04:57:34.648Z,10.80
2023-11-01T05:00:09.900Z,10.80
2023-11-01T05:02:38.179Z,10.88
2023-11-01T05:05:07.608Z,10.70
2023-11-01T05:07:35.503Z,10.85
2023-11-01T05:10:03.950Z,10.88
2023-11-01T05:12:32.016Z,10.89
2023-11-01T05:14:59.761Z,10.88
2023-11-01T05:17:29.734Z,10.91
2023-11-01T05:19:57.396Z,10.89
2023-11-01T05:22:25.047Z,10.88
2023-11-01T05:24:52.779Z,10.95
2023-11-01T05:27:21.303Z,10.96
2023-11-01T05:29:49.173Z,10.95
2023-11-01T05:32:16.916Z,10.93
2023-11-01T05:34:46.670Z,10.99
2023-11-01T05:37:14.489Z,11.08
2023-11-01T05:39:42.954Z,11.07
2023-11-01T05:42:10.838Z,11.10
2023-11-01T05:44:38.655Z,11.13
2023-11-01T05:47:06.491Z,11.12
2023-11-01T05:49:34.096Z,11.21
2023-11-01T05:52:04.043Z,11.17
2023-11-01T05:54:31.680Z,11.22
2023-11-01T05:56:59.339Z,11.23
2023-11-01T05:59:26.983Z,11.21
2023-11-01T06:01:54.774Z,11.21
2023-11-01T06:04:23.359Z,11.24
2023-11-01T06:06:51.154Z,11.28
2023-11-01T06:09:20.899Z,11.35
2023-11-01T06:11:48.797Z,11.39
2023-11-01T06:14:16.699Z,11.39
2023-11-01T06:16:44.451Z,11.49
2023-11-01T06:19:12.935Z,11.48
2023-11-01T06:21:40.805Z,11.58
2023-11-01T06:24:08.937Z,11.50
2023-11-01T06:26:38.034Z,11.56
2023-11-01T06:29:05.685Z,11.58
2023-11-01T06:31:33.571Z,11.53
2023-11-01T06:34:01.557Z,11.53
2023-11-01T06:36:29.270Z,11.61
2023-11-01T06:38:56.998Z,11.64
2023-11-01T06:41:27.074Z,11.57
2023-11-01T06:43:57.132Z,11.74
2023-11-01T06:46:24.915Z,11.65
2023-11-01T06:48:52.594Z,11.70
2023-11-01T06:51:20.195Z,11.66
2023-11-01T06:53:47.971Z,11.69
2023-11-01T06:56:15.715Z,11.70
2023-11-01T06:58:44.352Z,11.70
2023-11-01T07:01:13.951Z,11.70
2023-11-01T07:03:41.745Z,11.92
2023-11-01T07:06:09.775Z,11.72
2023-11-01T07:08:37.403Z,11.73
2023-11-01T07:11:05.306Z,11.76
2023-11-01T07:13:32.910Z,11.79
2023-11-01T07:16:00.533Z,11.72
2023-11-01T07:18:29.557Z,11.79
2023-11-01T07:20:57.209Z,11.79
2023-11-01T07:23:25.711Z,11.86
2023-11-01T07:25:53.370Z,11.81
2023-11-01T07:28:21.005Z,11.81
2023-11-01T07:30:48.591Z,11.87
2023-11-01T07:33:16.813Z,11.82
2023-11-01T07:35:45.985Z,11.82
2023-11-01T07:38:14.046Z,11.79
2023-11-01T07:40:41.812Z,11.88
2023-11-01T07:43:09.465Z,11.88
2023-11-01T07:45:37.202Z,11.83
2023-11-01T07:48:05.987Z,11.85
2023-11-01T07:50:34.429Z,11.86
2023-11-01T07:53:03.482Z,11.96
2023-11-01T07:55:31.200Z,11.92
2023-11-01T07:57:58.931Z,11.94
2023-11-01T08:00:26.845Z,11.96
2023-11-01T08:02:55.415Z,11.94
2023-11-01T08:05:23.228Z,11.94
2023-11-01T08:07:50.974Z,11.98
2023-11-01T08:10:20.044Z,11.97
2023-11-01T08:12:48.287Z,11.96
2023-11-01T08:15:15.915Z,12.04
2023-11-01T08:17:43.842Z,12.02
2023-11-01T08:20:12.133Z,12.07
2023-11-01T08:22:40.218Z,12.00
2023-11-01T08:25:09.834Z,12.15
2023-11-01T08:27:39.039Z,12.11
2023-11-01T08:30:07.269Z,12.13
2023-11-01T08:32:35.183Z,12.11
2023-11-01T08:35:04.198Z,12.24
2023-11-01T08:37:32.015Z,12.16
2023-11-01T08:39:59.695Z,12.13
2023-11-01T08:42:27.442Z,12.16
2023-11-01T08:44:56.786Z,12.17
2023-11-01T08:47:34.196Z,12.16
2023-11-01T08:50:02.000Z,12.28
2023-11-01T08:52:29.994Z,12.19
2023-11-01T08:54:58.277Z,12.13
2023-11-01T08:57:26.083Z,12.09
2023-11-01T08:59:58.784Z,12.16
2023-11-01T09:02:28.457Z,12.13
2023-11-01T09:04:56.974Z,12.14
2023-11-01T09:07:24.651Z,12.14
2023-11-01T09:09:53.830Z,12.23
2023-11-01T09:12:21.954Z,12.28
2023-11-01T09:14:49.877Z,12.22
2023-11-01T09:17:18.010Z,12.32
2023-11-01T09:19:47.013Z,12.34
2023-11-01T09:22:16.545Z,12.39
2023-11-01T09:24:44.369Z,12.39
2023-11-01T09:27:12.137Z,12.36
2023-11-01T09:29:39.913Z,12.36
2023-11-01T09:32:08.120Z,12.58
2023-11-01T09:34:35.781Z,12.60
2023-11-01T09:37:05.052Z,12.48
2023-11-01T09:39:33.098Z,12.49
2023-11-01T09:42:02.869Z,12.53
2023-11-01T09:44:30.790Z,12.48
2023-11-01T09:46:58.894Z,12.46
2023-11-01T09:49:26.728Z,12.48
2023-11-01T09:51:54.507Z,12.57
2023-11-01T09:54:23.501Z,12.77
2023-11-01T09:56:51.938Z,12.78
2023-11-01T09:59:19.696Z,12.83
2023-11-01T10:01:47.366Z,12.79
2023-11-01T10:04:15.115Z,12.63
2023-11-01T10:06:45.240Z,12.82
2023-11-01T10:09:13.036Z,12.92
2023-11-01T10:11:42.144Z,12.82
2023-11-01T10:14:10.005Z,12.83
2023-11-01T10:16:38.502Z,12.81
2023-11-01T10:19:06.475Z,12.88
2023-11-01T10:21:34.168Z,12.69
2023-11-01T10:24:02.410Z,12.92
2023-11-01T10:26:31.017Z,12.92
2023-11-01T10:29:01.082Z,13.14
2023-11-01T10:31:28.831Z,13.10
2023-11-01T10:33:56.640Z,13.11
2023-11-01T10:36:24.361Z,13.20
2023-11-01T10:38:53.078Z,13.14
2023-11-01T10:41:21.041Z,13.12
2023-11-01T10:43:49.392Z,13.24
2023-11-01T10:46:18.846Z,13.20
2023-11-01T10:48:46.763Z,13.27
2023-11-01T10:51:14.983Z,13.31
2023-11-01T10:53:43.360Z,13.45
2023-11-01T10:56:11.055Z,13.41
2023-11-01T10:58:41.434Z,13.15
2023-11-01T11:01:12.739Z,13.29
2023-11-01T11:03:46.169Z,13.35
2023-11-01T11:06:16.833Z,13.31
2023-11-01T11:08:44.658Z,13.23
2023-11-01T11:11:18.266Z,13.23
2023-11-01T11:13:47.591Z,13.14
2023-11-01T11:16:19.443Z,13.18
2023-11-01T11:19:00.601Z,13.20
2023-11-01T11:21:46.223Z,13.34
2023-11-01T11:24:32.346Z,13.26
2023-11-01T11:27:00.191Z,13.19
2023-11-01T11:29:42.763Z,13.07
2023-11-01T11:32:17.292Z,13.18
2023-11-01T11:34:46.303Z,13.13
2023-11-01T11:37:15.506Z,13.02
2023-11-01T11:39:53.837Z,13.16
2023-11-01T11:42:42.642Z,13.19
2023-11-01T11:45:10.306Z,13.18
2023-11-01T11:47:38.260Z,13.17
2023-11-01T11:50:10.535Z,13.19
2023-11-01T11:52:39.696Z,13.31
2023-11-01T11:55:08.985Z,13.29
2023-11-01T11:57:36.746Z,13.27
2023-11-01T12:00:05.554Z,13.24
2023-11-01T12:02:33.243Z,13.33
2023-11-01T12:05:01.105Z,13.34
2023-11-01T12:07:30.133Z,13.37
2023-11-01T12:09:58.456Z,13.55
2023-11-01T12:12:26.237Z,13.63
2023-11-01T12:15:01.108Z,13.68
2023-11-01T12:17:28.946Z,13.68
2023-11-01T12:19:56.711Z,13.66
2023-11-01T12:22:24.364Z,13.62
2023-11-01T12:24:56.241Z,13.63
2023-11-01T12:27:30.595Z,13.56
2023-11-01T12:29:58.659Z,13.63
2023-11-01T12:32:30.589Z,13.70
2023-11-01T12:35:06.882Z,13.78
2023-11-01T12:37:35.085Z,13.72
2023-11-01T12:40:06.148Z,13.73
2023-11-01T12:42:34.946Z,13.76
2023-11-01T12:45:04.460Z,13.83
2023-11-01T12:47:40.922Z,13.82
2023-11-01T12:50:09.371Z,13.77
2023-11-01T12:52:39.826Z,13.64
2023-11-01T12:55:10.163Z,13.73
2023-11-01T12:57:38.340Z,13.77
2023-11-01T13:00:06.832Z,13.57
2023-11-01T13:02:34.543Z,13.79
2023-11-01T13:05:03.718Z,13.94
2023-11-01T13:07:32.280Z,13.97
2023-11-01T13:10:01.488Z,13.95
2023-11-01T13:12:30.792Z,14.08
2023-11-01T13:14:58.445Z,14.27
2023-11-01T13:17:26.657Z,14.44
2023-11-01T13:19:55.915Z,14.30
2023-11-01T13:22:25.488Z,14.39
2023-11-01T13:24:55.784Z,14.30
2023-11-01T13:27:23.440Z,14.19
2023-11-01T13:29:53.129Z,14.05
2023-11-01T13:32:20.772Z,13.97
2023-11-01T13:34:48.420Z,13.90
2023-11-01T13:37:17.006Z,13.88
2023-11-01T13:39:44.844Z,13.83
2023-11-01T13:42:16.388Z,13.77
2023-11-01T13:44:45.074Z,13.76
2023-11-01T13:47:14.655Z,13.74
2023-11-01T13:49:43.124Z,13.69
2023-11-01T13:52:12.525Z,13.77
2023-11-01T13:54:40.673Z,13.77
2023-11-01T13:57:08.745Z,13.72
2023-11-01T13:59:36.768Z,13.67
2023-11-01T14:02:05.111Z,13.65
2023-11-01T14:04:34.326Z,13.60
2023-11-01T14:07:02.052Z,13.60
2023-11-01T14:09:30.262Z,13.57
2023-11-01T14:11:58.118Z,13.62
2023-11-01T14:14:27.152Z,13.65
2023-11-01T14:16:55.193Z,13.54
2023-11-01T14:19:22.939Z,13.65
2023-11-01T14:21:51.931Z,13.58
2023-11-01T14:24:20.335Z,13.49
2023-11-01T14:26:48.798Z,13.58
2023-11-01T14:29:16.621Z,13.53
2023-11-01T14:31:44.259Z,13.43
2023-11-01T14:34:12.065Z,13.43
2023-11-01T14:36:40.643Z,13.36
2023-11-01T14:39:10.310Z,13.42
2023-11-01T14:41:38.045Z,13.39
2023-11-01T14:44:06.446Z,13.43
2023-11-01T14:46:34.443Z,13.47
2023-11-01T14:49:02.123Z,13.35
2023-11-01T14:51:29.846Z,13.43
2023-11-01T14:53:57.558Z,13.28
2023-11-01T14:56:26.642Z,13.25
2023-11-01T14:58:55.412Z,13.28
2023-11-01T15:01:23.250Z,13.25
2023-11-01T15:03:51.061Z,13.26
2023-11-01T15:06:18.847Z,13.25
2023-11-01T15:08:46.592Z,13.24
2023-11-01T15:11:15.705Z,13.31
2023-11-01T15:13:44.748Z,13.31
2023-11-01T15:16:12.425Z,13.31
2023-11-01T15:18:40.085Z,13.20
2023-11-01T15:21:08.189Z,13.20
2023-11-01T15:23:38.867Z,13.04
2023-11-01T15:26:06.751Z,12.89
2023-11-01T15:28:34.488Z,12.68
2023-11-01T15:31:04.013Z,12.52
2023-11-01T15:33:32.703Z,12.45
2023-11-01T15:36:00.431Z,12.36
2023-11-01T15:38:28.095Z,12.23
2023-11-01T15:40:56.015Z,12.15
2023-11-01T15:43:23.591Z,12.10
2023-11-01T15:45:51.303Z,12.08
2023-11-01T15:48:22.627Z,12.02
2023-11-01T15:50:50.683Z,12.03
2023-11-01T15:53:18.981Z,12.07
2023-11-01T15:55:46.766Z,12.05
2023-11-01T15:58:15.432Z,12.11
2023-11-01T16:00:43.774Z,12.00
2023-11-01T16:03:11.845Z,11.95
2023-11-01T16:05:47.243Z,11.96
2023-11-01T16:08:15.017Z,11.95
2023-11-01T16:10:42.639Z,11.98
2023-11-01T16:13:10.315Z,11.98
2023-11-01T16:15:38.609Z,11.87
2023-11-01T16:18:06.446Z,11.97
2023-11-01T16:20:36.601Z,11.95
2023-11-01T16:23:05.628Z,11.93
2023-11-01T16:25:33.393Z,11.99
2023-11-01T16:28:01.156Z,12.00
2023-11-01T16:30:28.886Z,11.96
2023-11-01T16:32:57.657Z,11.97
2023-11-01T16:35:26.498Z,12.02
2023-11-01T16:37:54.520Z,12.03
2023-11-01T16:40:23.728Z,12.02
2023-11-01T16:42:51.505Z,12.01
2023-11-01T16:45:19.375Z,12.04
2023-11-01T16:47:47.248Z,12.04
2023-11-01T16:50:14.919Z,12.09
2023-11-01T16:52:43.388Z,12.09
2023-11-01T16:55:11.495Z,12.16
2023-11-01T16:57:40.687Z,12.12
2023-11-01T17:00:08.553Z,12.12
2023-11-01T17:02:45.373Z,12.13
2023-11-01T17:05:17.933Z,12.11
2023-11-01T17:07:45.864Z,12.08
2023-11-01T17:10:13.546Z,11.99
2023-11-01T17:12:42.606Z,12.01
2023-11-01T17:15:10.676Z,11.95
2023-11-01T17:17:40.443Z,11.91
2023-11-01T17:20:09.524Z,11.86
2023-11-01T17:22:52.089Z,11.85
2023-11-01T17:25:56.765Z,11.73
2023-11-01T17:28:26.609Z,11.71
2023-11-01T17:30:54.836Z,11.69
2023-11-01T17:33:24.609Z,11.66
2023-11-01T17:35:52.518Z,11.65
2023-11-01T17:38:22.230Z,11.58
2023-11-01T17:40:54.127Z,11.62
2023-11-01T17:43:37.753Z,11.62
2023-11-01T17:46:05.609Z,11.61
2023-11-01T17:48:33.449Z,11.53
2023-11-01T17:51:01.140Z,11.44
2023-11-01T17:53:29.875Z,11.42
2023-11-01T17:55:57.550Z,11.38
2023-11-01T17:58:25.236Z,11.34
2023-11-01T18:00:54.384Z,11.42
2023-11-01T18:03:26.125Z,11.32
2023-11-01T18:05:55.554Z,11.38
2023-11-01T18:08:27.259Z,11.30
2023-11-01T18:10:56.896Z,11.25
2023-11-01T18:13:28.567Z,11.24
2023-11-01T18:15:59.283Z,11.18
2023-11-01T18:18:40.397Z,11.18
2023-11-01T18:21:09.381Z,11.14
2023-11-01T18:23:37.185Z,11.13
2023-11-01T18:26:08.124Z,11.17
2023-11-01T18:28:40.773Z,11.27
2023-11-01T18:31:15.163Z,11.25
2023-11-01T18:33:42.917Z,11.17
2023-11-01T18:36:14.245Z,11.19
2023-11-01T18:38:52.004Z,11.16
2023-11-01T18:41:19.653Z,11.09
2023-11-01T18:43:47.427Z,11.10
2023-11-01T18:46:16.531Z,11.01
2023-11-01T18:48:44.504Z,10.98
2023-11-01T18:51:32.090Z,10.99
2023-11-01T18:54:01.084Z,11.03
2023-11-01T18:56:28.854Z,10.95
2023-11-01T18:58:57.107Z,10.92
2023-11-01T19:01:24.792Z,10.87
2023-11-01T19:03:52.509Z,10.91
2023-11-01T19:06:20.666Z,10.84
2023-11-01T19:08:48.410Z,10.80
2023-11-01T19:11:17.508Z,10.82
2023-11-01T19:13:45.250Z,10.78
2023-11-01T19:16:13.433Z,10.75
2023-11-01T19:18:41.197Z,10.70
2023-11-01T19:21:09.084Z,10.71
2023-11-01T19:23:36.993Z,10.71
2023-11-01T19:26:05.636Z,10.72
2023-11-01T19:28:34.672Z,10.66
2023-11-01T19:31:03.745Z,10.65
2023-11-01T19:33:34.043Z,10.66
2023-11-01T19:36:08.283Z,10.64
2023-11-01T19:38:43.089Z,10.59
2023-11-01T19:41:10.825Z,10.60
2023-11-01T19:43:39.802Z,10.65
2023-11-01T19:46:07.609Z,10.56
2023-11-01T19:48:35.370Z,10.56
2023-11-01T19:51:04.012Z,10.51
2023-11-01T19:53:31.815Z,10.56
2023-11-01T19:55:59.634Z,10.60
2023-11-01T19:58:27.393Z,10.55
2023-11-01T20:00:56.504Z,10.55
2023-11-01T20:03:24.304Z,10.52
2023-11-01T20:05:52.108Z,10.51
2023-11-01T20:08:19.870Z,10.52
2023-11-01T20:10:48.130Z,10.49
2023-11-01T20:13:16.765Z,10.49
2023-11-01T20:15:44.516Z,10.45
2023-11-01T20:18:13.652Z,10.44
2023-11-01T20:20:41.450Z,10.47
2023-11-01T20:23:09.335Z,10.38
2023-11-01T20:25:37.030Z,10.36
2023-11-01T20:28:14.719Z,10.34
2023-11-01T20:30:42.655Z,10.33
2023-11-01T20:33:12.110Z,10.32
2023-11-01T20:35:41.251Z,10.29
2023-11-01T20:38:09.156Z,10.28
2023-11-01T20:40:38.631Z,10.25
2023-11-01T20:43:06.357Z,10.23
2023-11-01T20:45:38.432Z,10.21
2023-11-01T20:48:08.423Z,10.22
2023-11-01T20:50:36.196Z,10.20
2023-11-01T20:53:05.323Z,10.19
2023-11-01T20:55:35.028Z,10.18
2023-11-01T20:58:04.796Z,10.19
2023-11-01T21:00:32.647Z,10.25
2023-11-01T21:03:00.451Z,10.11
2023-11-01T21:05:28.231Z,10.08
2023-11-01T21:07:56.138Z,10.07
2023-11-01T21:10:25.287Z,10.06
2023-11-01T21:12:53.023Z,10.01
2023-11-01T21:15:20.787Z,9.98
2023-11-01T21:17:48.693Z,10.01
2023-11-01T21:20:16.437Z,9.95
2023-11-01T21:22:44.081Z,9.95
2023-11-01T21:25:12.458Z,9.90
2023-11-01T21:27:41.519Z,9.88
2023-11-01T21:30:09.800Z,9.86
2023-11-01T21:32:37.536Z,9.85
2023-11-01T21:35:05.408Z,9.86
2023-11-01T21:37:33.126Z,9.89
2023-11-01T21:40:00.792Z,9.80
2023-11-01T21:42:28.694Z,9.88
2023-11-01T21:44:57.791Z,9.75
2023-11-01T21:47:31.023Z,9.74
2023-11-01T21:49:59.264Z,9.73
2023-11-01T21:52:27.352Z,9.73
2023-11-01T21:54:55.032Z,9.70
2023-11-01T21:57:27.313Z,9.62
2023-11-01T21:59:58.611Z,9.58
2023-11-01T22:02:32.346Z,9.57
2023-11-01T22:05:00.054Z,9.52
2023-11-01T22:07:29.800Z,9.52
2023-11-01T22:09:57.663Z,9.57
2023-11-01T22:12:25.258Z,9.57
2023-11-01T22:14:52.872Z,9.49
2023-11-01T22:17:32.702Z,9.54
2023-11-01T22:20:00.365Z,9.48
2023-11-01T22:22:48.049Z,9.47
2023-11-01T22:25:22.971Z,9.41
2023-11-01T22:27:50.529Z,9.42
2023-11-01T22:30:19.949Z,9.36
2023-11-01T22:32:49.373Z,9.36
2023-11-01T22:35:23.703Z,9.29
2023-11-01T22:37:51.363Z,9.30
2023-11-01T22:40:19.791Z,9.29
2023-11-01T22:42:47.557Z,9.25
2023-11-01T22:45:15.483Z,9.28
2023-11-01T22:47:43.229Z,9.23
2023-11-01T22:50:12.368Z,9.20
2023-11-01T22:52:39.958Z,9.20
2023-11-01T22:55:07.888Z,9.20
2023-11-01T22:57:35.541Z,9.14
2023-11-01T23:00:07.327Z,9.11
2023-11-01T23:02:35.564Z,9.10
2023-11-01T23:05:03.397Z,9.10
2023-11-01T23:07:32.403Z,9.14
2023-11-01T23:10:00.164Z,9.14
2023-11-01T23:12:27.829Z,9.08
2023-11-01T23:14:55.594Z,9.10
2023-11-01T23:17:23.370Z,9.08
2023-11-01T23:19:51.247Z,9.07
2023-11-01T23:22:19.499Z,9.11
2023-11-01T23:24:50.073Z,9.20
2023-11-01T23:27:17.767Z,9.06
2023-11-01T23:29:45.379Z,9.04
2023-11-01T23:32:13.772Z,9.01
2023-11-01T23:34:45.666Z,8.98
2023-11-01T23:37:16.717Z,9.02
2023-11-01T23:39:44.397Z,9.01
2023-11-01T23:42:14.168Z,9.04
2023-11-01T23:44:42.131Z,8.99
2023-11-01T23:47:10.122Z,9.01
2023-11-01T23:49:49.325Z,8.99
2023-11-01T23:52:18.852Z,9.07
2023-11-01T23:54:47.587Z,9.09
2023-11-01T23:57:16.588Z,9.09
2023-11-01T23:59:45.169Z,9.10
